sensor_id;sensor_type;location;lat;lon;timestamp;pressure;altitude;pressure_sealevel;temperature;humidity
43217;BME280;60511;42.686;23.300;2022-07-09T00:00:46;94651.72;;;26.81;40.01
43217;BME280;60511;42.686;23.300;2022-07-09T00:02:46;94649.00;;;26.81;40.08
43217;BME280;60511;42.686;23.300;2022-07-09T00:04:46;94643.16;;;26.82;40.04
43217;BME280;60511;42.686;23.300;2022-07-09T00:06:46;94654.06;;;26.86;40.06
43217;BME280;60511;42.686;23.300;2022-07-09T00:08:47;94652.16;;;26.90;39.90
43217;BME280;60511;42.686;23.300;2022-07-09T00:10:47;94654.06;;;26.86;39.95
43217;BME280;60511;42.686;23.300;2022-07-09T00:12:47;94650.63;;;26.89;40.02
43217;BME280;60511;42.686;23.300;2022-07-09T00:14:48;94652.53;;;26.89;39.97
43217;BME280;60511;42.686;23.300;2022-07-09T00:16:48;94655.66;;;26.87;39.86
43217;BME280;60511;42.686;23.300;2022-07-09T00:18:49;94645.88;;;26.82;40.10
43217;BME280;60511;42.686;23.300;2022-07-09T00:20:49;94647.06;;;26.81;40.04
43217;BME280;60511;42.686;23.300;2022-07-09T00:22:49;94646.69;;;26.83;40.14
43217;BME280;60511;42.686;23.300;2022-07-09T00:24:50;94645.16;;;26.85;40.05
43217;BME280;60511;42.686;23.300;2022-07-09T00:26:50;94645.16;;;26.85;39.92
43217;BME280;60511;42.686;23.300;2022-07-09T00:28:51;94635.47;;;26.88;40.11
43217;BME280;60511;42.686;23.300;2022-07-09T00:30:51;94624.56;;;26.84;40.13
43217;BME280;60511;42.686;23.300;2022-07-09T00:32:52;94630.41;;;26.86;39.99
43217;BME280;60511;42.686;23.300;2022-07-09T00:34:52;94625.31;;;26.81;40.08
43217;BME280;60511;42.686;23.300;2022-07-09T00:36:52;94634.28;;;26.85;40.00
43217;BME280;60511;42.686;23.300;2022-07-09T00:38:53;94629.63;;;26.86;39.95
43217;BME280;60511;42.686;23.300;2022-07-09T00:40:54;94633.91;;;26.87;40.05
43217;BME280;60511;42.686;23.300;2022-07-09T00:42:54;94629.25;;;26.88;40.02
43217;BME280;60511;42.686;23.300;2022-07-09T00:44:54;94633.91;;;26.87;40.04
43217;BME280;60511;42.686;23.300;2022-07-09T00:46:55;94626.50;;;26.84;40.04
43217;BME280;60511;42.686;23.300;2022-07-09T00:48:55;94630.81;;;26.85;40.25
43217;BME280;60511;42.686;23.300;2022-07-09T00:50:56;94628.84;;;26.85;39.99
43217;BME280;60511;42.686;23.300;2022-07-09T00:52:56;94621.53;;;26.90;39.89
43217;BME280;60511;42.686;23.300;2022-07-09T00:54:59;94621.94;;;26.92;39.87
43217;BME280;60511;42.686;23.300;2022-07-09T00:57:00;94630.06;;;26.92;39.97
43217;BME280;60511;42.686;23.300;2022-07-09T00:59:00;94617.25;;;26.92;39.82
43217;BME280;60511;42.686;23.300;2022-07-09T01:01:01;94613.75;;;26.88;39.94
43217;BME280;60511;42.686;23.300;2022-07-09T01:03:01;94609.09;;;26.89;39.98
43217;BME280;60511;42.686;23.300;2022-07-09T01:05:02;94609.47;;;26.87;39.91
43217;BME280;60511;42.686;23.300;2022-07-09T01:07:03;94609.88;;;26.89;39.87
43217;BME280;60511;42.686;23.300;2022-07-09T01:09:03;94610.25;;;26.88;40.09
43217;BME280;60511;42.686;23.300;2022-07-09T01:11:04;94608.31;;;26.88;39.88
43217;BME280;60511;42.686;23.300;2022-07-09T01:13:05;94615.28;;;26.85;39.99
43217;BME280;60511;42.686;23.300;2022-07-09T01:15:05;94614.09;;;26.86;39.98
43217;BME280;60511;42.686;23.300;2022-07-09T01:17:06;94617.63;;;26.91;40.07
43217;BME280;60511;42.686;23.300;2022-07-09T01:19:06;94604.06;;;26.87;40.16
43217;BME280;60511;42.686;23.300;2022-07-09T01:21:08;94606.00;;;26.90;39.86
43217;BME280;60511;42.686;23.300;2022-07-09T01:23:09;94600.16;;;26.88;39.92
43217;BME280;60511;42.686;23.300;2022-07-09T01:25:10;94600.56;;;26.90;39.99
43217;BME280;60511;42.686;23.300;2022-07-09T01:27:12;94599.44;;;26.91;39.96
43217;BME280;60511;42.686;23.300;2022-07-09T01:29:13;94592.41;;;26.90;39.95
43217;BME280;60511;42.686;23.300;2022-07-09T01:31:14;94599.03;;;26.89;40.00
43217;BME280;60511;42.686;23.300;2022-07-09T01:33:14;94592.81;;;26.92;39.81
43217;BME280;60511;42.686;23.300;2022-07-09T01:35:14;94591.69;;;26.93;39.81
43217;BME280;60511;42.686;23.300;2022-07-09T01:37:15;94592.78;;;26.89;39.90
43217;BME280;60511;42.686;23.300;2022-07-09T01:39:15;94592.81;;;26.92;39.93
43217;BME280;60511;42.686;23.300;2022-07-09T01:41:16;94593.19;;;26.91;40.01
43217;BME280;60511;42.686;23.300;2022-07-09T01:43:16;94594.41;;;26.97;39.74
43217;BME280;60511;42.686;23.300;2022-07-09T01:45:16;94588.19;;;26.96;39.77
43217;BME280;60511;42.686;23.300;2022-07-09T01:47:17;94592.44;;;26.94;39.98
43217;BME280;60511;42.686;23.300;2022-07-09T01:49:17;94595.53;;;26.92;39.90
43217;BME280;60511;42.686;23.300;2022-07-09T01:51:18;94594.41;;;26.97;39.80
43217;BME280;60511;42.686;23.300;2022-07-09T01:53:19;94592.81;;;26.92;39.83
43217;BME280;60511;42.686;23.300;2022-07-09T01:55:19;94592.44;;;26.94;39.85
43217;BME280;60511;42.686;23.300;2022-07-09T01:57:19;94594.00;;;26.95;39.68
43217;BME280;60511;42.686;23.300;2022-07-09T01:59:20;94597.13;;;26.93;39.85
43217;BME280;60511;42.686;23.300;2022-07-09T02:01:20;94597.13;;;26.93;39.83
43217;BME280;60511;42.686;23.300;2022-07-09T02:03:21;94584.69;;;26.92;39.90
43217;BME280;60511;42.686;23.300;2022-07-09T02:05:22;94590.88;;;26.93;39.74
43217;BME280;60511;42.686;23.300;2022-07-09T02:07:23;94595.53;;;26.92;39.76
43217;BME280;60511;42.686;23.300;2022-07-09T02:09:24;94597.88;;;26.94;39.94
43217;BME280;60511;42.686;23.300;2022-07-09T02:11:24;94597.53;;;26.95;39.69
43217;BME280;60511;42.686;23.300;2022-07-09T02:13:24;94600.63;;;26.97;39.77
43217;BME280;60511;42.686;23.300;2022-07-09T02:15:24;94599.84;;;26.97;39.63
43217;BME280;60511;42.686;23.300;2022-07-09T02:17:25;94599.06;;;26.96;39.65
43217;BME280;60511;42.686;23.300;2022-07-09T02:19:25;94596.38;;;27.00;39.53
43217;BME280;60511;42.686;23.300;2022-07-09T02:21:25;94599.13;;;27.03;39.56
43217;BME280;60511;42.686;23.300;2022-07-09T02:23:27;94604.16;;;27.01;39.42
43217;BME280;60511;42.686;23.300;2022-07-09T02:25:27;94602.22;;;27.02;39.31
43217;BME280;60511;42.686;23.300;2022-07-09T02:27:27;94600.69;;;27.04;39.36
43217;BME280;60511;42.686;23.300;2022-07-09T02:29:29;94598.31;;;27.03;39.29
43217;BME280;60511;42.686;23.300;2022-07-09T02:31:29;94604.53;;;27.00;39.39
43217;BME280;60511;42.686;23.300;2022-07-09T02:33:30;94604.53;;;27.00;39.51
43217;BME280;60511;42.686;23.300;2022-07-09T02:35:31;94611.09;;;26.99;39.26
43217;BME280;60511;42.686;23.300;2022-07-09T02:37:31;94613.50;;;27.04;39.38
43217;BME280;60511;42.686;23.300;2022-07-09T02:39:32;94605.34;;;27.04;39.41
43217;BME280;60511;42.686;23.300;2022-07-09T02:41:32;94611.13;;;27.02;39.34
43217;BME280;60511;42.686;23.300;2022-07-09T02:43:33;94612.31;;;27.05;39.36
43217;BME280;60511;42.686;23.300;2022-07-09T02:45:33;94612.72;;;27.03;39.38
43217;BME280;60511;42.686;23.300;2022-07-09T02:47:33;94612.31;;;27.05;39.14
43217;BME280;60511;42.686;23.300;2022-07-09T02:49:33;94609.22;;;27.06;39.36
43217;BME280;60511;42.686;23.300;2022-07-09T02:51:34;94617.00;;;27.08;39.26
43217;BME280;60511;42.686;23.300;2022-07-09T02:53:34;94613.50;;;27.04;39.30
43217;BME280;60511;42.686;23.300;2022-07-09T02:55:34;94613.88;;;27.06;39.32
43217;BME280;60511;42.686;23.300;2022-07-09T02:57:35;94622.41;;;27.04;39.49
43217;BME280;60511;42.686;23.300;2022-07-09T02:59:36;94616.59;;;27.06;39.39
43217;BME280;60511;42.686;23.300;2022-07-09T03:01:36;94620.06;;;27.03;39.57
43217;BME280;60511;42.686;23.300;2022-07-09T03:03:37;94624.34;;;27.04;39.40
43217;BME280;60511;42.686;23.300;2022-07-09T03:05:37;94623.56;;;27.03;39.35
43217;BME280;60511;42.686;23.300;2022-07-09T03:07:37;94627.84;;;27.04;39.36
43217;BME280;60511;42.686;23.300;2022-07-09T03:09:37;94620.88;;;27.07;38.89
43217;BME280;60511;42.686;23.300;2022-07-09T03:11:38;94625.50;;;27.03;39.25
43217;BME280;60511;42.686;23.300;2022-07-09T03:13:39;94624.72;;;27.02;39.30
43217;BME280;60511;42.686;23.300;2022-07-09T03:15:39;94623.53;;;27.00;39.39
43217;BME280;60511;42.686;23.300;2022-07-09T03:17:39;94622.38;;;27.01;39.19
43217;BME280;60511;42.686;23.300;2022-07-09T03:19:40;94625.47;;;26.99;39.14
43217;BME280;60511;42.686;23.300;2022-07-09T03:21:40;94620.47;;;27.01;39.22
43217;BME280;60511;42.686;23.300;2022-07-09T03:23:41;94621.22;;;27.02;39.30
43217;BME280;60511;42.686;23.300;2022-07-09T03:25:41;94619.69;;;27.04;39.35
43217;BME280;60511;42.686;23.300;2022-07-09T03:27:43;94627.09;;;27.08;39.29
43217;BME280;60511;42.686;23.300;2022-07-09T03:29:44;94626.69;;;27.05;39.27
43217;BME280;60511;42.686;23.300;2022-07-09T03:31:44;94619.69;;;27.04;39.09
43217;BME280;60511;42.686;23.300;2022-07-09T03:33:44;94622.03;;;27.06;39.09
43217;BME280;60511;42.686;23.300;2022-07-09T03:35:45;94617.34;;;27.03;39.31
43217;BME280;60511;42.686;23.300;2022-07-09T03:37:45;94620.06;;;27.03;39.37
43217;BME280;60511;42.686;23.300;2022-07-09T03:39:46;94617.34;;;27.03;39.43
43217;BME280;60511;42.686;23.300;2022-07-09T03:41:46;94622.78;;;27.03;39.15
43217;BME280;60511;42.686;23.300;2022-07-09T03:43:46;94617.75;;;27.05;39.26
43217;BME280;60511;42.686;23.300;2022-07-09T03:45:47;94618.91;;;27.04;39.43
43217;BME280;60511;42.686;23.300;2022-07-09T03:47:47;94618.13;;;27.00;39.47
43217;BME280;60511;42.686;23.300;2022-07-09T03:49:48;94616.56;;;27.02;39.57
43217;BME280;60511;42.686;23.300;2022-07-09T03:51:48;94620.88;;;27.03;39.13
43217;BME280;60511;42.686;23.300;2022-07-09T03:53:49;94620.88;;;27.03;39.37
43217;BME280;60511;42.686;23.300;2022-07-09T03:55:49;94620.47;;;27.01;39.33
43217;BME280;60511;42.686;23.300;2022-07-09T03:57:49;94626.28;;;27.03;39.17
43217;BME280;60511;42.686;23.300;2022-07-09T03:59:50;94622.03;;;27.06;39.27
43217;BME280;60511;42.686;23.300;2022-07-09T04:01:50;94623.94;;;27.02;39.36
43217;BME280;60511;42.686;23.300;2022-07-09T04:03:50;94623.94;;;27.02;39.21
43217;BME280;60511;42.686;23.300;2022-07-09T04:05:50;94623.19;;;27.05;39.27
43217;BME280;60511;42.686;23.300;2022-07-09T04:07:51;94611.09;;;26.95;39.31
43217;BME280;60511;42.686;23.300;2022-07-09T04:09:51;94632.13;;;27.05;39.30
43217;BME280;60511;42.686;23.300;2022-07-09T04:11:51;94629.00;;;27.03;39.29
43217;BME280;60511;42.686;23.300;2022-07-09T04:13:51;94623.59;;;27.07;39.26
43217;BME280;60511;42.686;23.300;2022-07-09T04:15:52;94634.44;;;27.03;39.46
43217;BME280;60511;42.686;23.300;2022-07-09T04:17:52;94634.44;;;27.03;39.31
43217;BME280;60511;42.686;23.300;2022-07-09T04:19:52;94633.63;;;27.03;39.22
43217;BME280;60511;42.686;23.300;2022-07-09T04:21:52;94639.06;;;27.03;39.53
43217;BME280;60511;42.686;23.300;2022-07-09T04:23:53;94637.16;;;27.07;39.16
43217;BME280;60511;42.686;23.300;2022-07-09T04:25:53;94634.44;;;27.07;39.23
43217;BME280;60511;42.686;23.300;2022-07-09T04:27:54;94643.78;;;27.06;39.41
43217;BME280;60511;42.686;23.300;2022-07-09T04:29:54;94641.47;;;27.08;39.18
43217;BME280;60511;42.686;23.300;2022-07-09T04:31:54;94639.16;;;27.10;39.20
43217;BME280;60511;42.686;23.300;2022-07-09T04:33:55;94641.50;;;27.12;39.21
43217;BME280;60511;42.686;23.300;2022-07-09T04:35:56;94650.78;;;27.11;39.11
43217;BME280;60511;42.686;23.300;2022-07-09T04:37:56;94637.19;;;27.11;39.33
43217;BME280;60511;42.686;23.300;2022-07-09T04:39:56;94635.25;;;27.11;39.23
43217;BME280;60511;42.686;23.300;2022-07-09T04:41:57;94628.28;;;27.10;39.20
43217;BME280;60511;42.686;23.300;2022-07-09T04:43:58;94627.50;;;27.10;39.14
43217;BME280;60511;42.686;23.300;2022-07-09T04:45:58;94637.16;;;27.07;39.38
43217;BME280;60511;42.686;23.300;2022-07-09T04:47:59;94636.44;;;27.10;39.33
43217;BME280;60511;42.686;23.300;2022-07-09T04:50:00;94629.13;;;27.18;39.18
43217;BME280;60511;42.686;23.300;2022-07-09T04:52:00;94631.03;;;27.17;39.21
43217;BME280;60511;42.686;23.300;2022-07-09T04:54:01;94637.59;;;27.13;39.39
43217;BME280;60511;42.686;23.300;2022-07-09T04:56:01;94632.53;;;27.11;39.20
43217;BME280;60511;42.686;23.300;2022-07-09T04:58:01;94631.38;;;27.09;39.48
43217;BME280;60511;42.686;23.300;2022-07-09T05:00:03;94631.78;;;27.11;39.47
43217;BME280;60511;42.686;23.300;2022-07-09T05:02:03;94636.06;;;27.12;39.29
43217;BME280;60511;42.686;23.300;2022-07-09T05:04:04;94639.59;;;27.16;39.05
43217;BME280;60511;42.686;23.300;2022-07-09T05:06:04;94632.94;;;27.13;39.34
43217;BME280;60511;42.686;23.300;2022-07-09T05:08:04;94637.63;;;27.16;39.10
43217;BME280;60511;42.686;23.300;2022-07-09T05:10:05;94635.66;;;27.13;39.14
43217;BME280;60511;42.686;23.300;2022-07-09T05:12:05;94642.31;;;27.16;39.31
43217;BME280;60511;42.686;23.300;2022-07-09T05:14:06;94649.66;;;27.12;39.24
43217;BME280;60511;42.686;23.300;2022-07-09T05:16:07;94646.91;;;27.08;39.40
43217;BME280;60511;42.686;23.300;2022-07-09T05:18:07;94652.72;;;27.10;39.55
43217;BME280;60511;42.686;23.300;2022-07-09T05:20:08;94644.94;;;27.09;39.37
43217;BME280;60511;42.686;23.300;2022-07-09T05:22:08;94642.28;;;27.12;39.44
43217;BME280;60511;42.686;23.300;2022-07-09T05:24:09;94648.50;;;27.16;39.34
43217;BME280;60511;42.686;23.300;2022-07-09T05:26:09;94650.81;;;27.14;39.32
43217;BME280;60511;42.686;23.300;2022-07-09T05:28:09;94648.84;;;27.11;39.50
43217;BME280;60511;42.686;23.300;2022-07-09T05:30:11;94653.94;;;27.16;39.30
43217;BME280;60511;42.686;23.300;2022-07-09T05:32:14;94654.34;;;27.18;39.35
43217;BME280;60511;42.686;23.300;2022-07-09T05:34:15;94663.63;;;27.17;39.20
43217;BME280;60511;42.686;23.300;2022-07-09T05:36:16;94635.56;;;26.99;39.24
43217;BME280;60511;42.686;23.300;2022-07-09T05:38:17;94666.00;;;27.19;39.33
43217;BME280;60511;42.686;23.300;2022-07-09T05:40:18;94669.06;;;27.17;39.36
43217;BME280;60511;42.686;23.300;2022-07-09T05:42:18;94664.41;;;27.14;39.43
43217;BME280;60511;42.686;23.300;2022-07-09T05:44:19;94662.09;;;27.16;39.38
43217;BME280;60511;42.686;23.300;2022-07-09T05:46:19;94663.22;;;27.15;39.28
43217;BME280;60511;42.686;23.300;2022-07-09T05:48:21;94665.22;;;27.18;39.24
43217;BME280;60511;42.686;23.300;2022-07-09T05:50:22;94673.72;;;27.17;39.31
43217;BME280;60511;42.686;23.300;2022-07-09T05:52:22;94669.47;;;27.16;39.50
43217;BME280;60511;42.686;23.300;2022-07-09T05:54:22;94676.03;;;27.15;39.33
43217;BME280;60511;42.686;23.300;2022-07-09T05:56:22;94666.00;;;27.19;39.48
43217;BME280;60511;42.686;23.300;2022-07-09T05:58:23;94663.75;;;27.24;39.14
43217;BME280;60511;42.686;23.300;2022-07-09T06:00:23;94673.84;;;27.24;39.13
43217;BME280;60511;42.686;23.300;2022-07-09T06:02:23;94670.66;;;27.18;39.47
43217;BME280;60511;42.686;23.300;2022-07-09T06:04:25;94668.31;;;27.17;39.45
43217;BME280;60511;42.686;23.300;2022-07-09T06:06:26;94667.53;;;27.16;39.38
43217;BME280;60511;42.686;23.300;2022-07-09T06:08:26;94670.25;;;27.16;39.45
43217;BME280;60511;42.686;23.300;2022-07-09T06:10:27;94666.03;;;27.22;39.26
43217;BME280;60511;42.686;23.300;2022-07-09T06:12:27;94677.25;;;27.21;39.41
43217;BME280;60511;42.686;23.300;2022-07-09T06:14:27;94673.00;;;27.20;39.39
43217;BME280;60511;42.686;23.300;2022-07-09T06:16:27;94677.25;;;27.21;39.18
43217;BME280;60511;42.686;23.300;2022-07-09T06:18:28;94679.97;;;27.21;39.27
43217;BME280;60511;42.686;23.300;2022-07-09T06:20:28;94675.41;;;27.29;39.35
43217;BME280;60511;42.686;23.300;2022-07-09T06:22:29;94674.59;;;27.24;39.24
43217;BME280;60511;42.686;23.300;2022-07-09T06:24:29;94678.13;;;27.29;39.24
43217;BME280;60511;42.686;23.300;2022-07-09T06:26:30;94679.28;;;27.28;39.19
43217;BME280;60511;42.686;23.300;2022-07-09T06:28:31;94683.94;;;27.27;39.22
43217;BME280;60511;42.686;23.300;2022-07-09T06:30:31;94682.31;;;27.22;39.35
43217;BME280;60511;42.686;23.300;2022-07-09T06:32:32;94681.56;;;27.22;39.22
43217;BME280;60511;42.686;23.300;2022-07-09T06:34:33;94682.75;;;27.24;39.24
43217;BME280;60511;42.686;23.300;2022-07-09T06:36:33;94678.88;;;27.25;39.23
43217;BME280;60511;42.686;23.300;2022-07-09T06:38:33;94684.31;;;27.25;39.23
43217;BME280;60511;42.686;23.300;2022-07-09T06:40:53;94689.34;;;27.23;39.52
43217;BME280;60511;42.686;23.300;2022-07-09T06:42:54;94687.00;;;27.22;39.31
43217;BME280;60511;42.686;23.300;2022-07-09T06:44:54;94689.72;;;27.22;39.21
43217;BME280;60511;42.686;23.300;2022-07-09T06:46:54;94685.91;;;27.30;39.32
43217;BME280;60511;42.686;23.300;2022-07-09T06:48:55;94686.69;;;27.31;39.21
43217;BME280;60511;42.686;23.300;2022-07-09T06:50:55;94693.28;;;27.30;39.27
43217;BME280;60511;42.686;23.300;2022-07-09T06:52:55;94696.00;;;27.30;39.12
43217;BME280;60511;42.686;23.300;2022-07-09T06:54:56;94686.66;;;27.27;39.24
43217;BME280;60511;42.686;23.300;2022-07-09T06:56:57;94683.56;;;27.29;39.21
43217;BME280;60511;42.686;23.300;2022-07-09T06:58:57;94687.44;;;27.28;39.45
43217;BME280;60511;42.686;23.300;2022-07-09T07:00:57;94683.72;;;26.00;42.61
43217;BME280;60511;42.686;23.300;2022-07-09T07:02:58;94697.19;;;24.74;45.92
43217;BME280;60511;42.686;23.300;2022-07-09T07:04:59;94689.69;;;24.05;48.32
43217;BME280;60511;42.686;23.300;2022-07-09T07:07:00;94692.03;;;24.89;46.60
43217;BME280;60511;42.686;23.300;2022-07-09T07:09:00;94690.31;;;25.00;46.54
43217;BME280;60511;42.686;23.300;2022-07-09T07:11:02;94695.88;;;25.07;46.31
43217;BME280;60511;42.686;23.300;2022-07-09T07:13:02;94698.38;;;24.96;46.72
43217;BME280;60511;42.686;23.300;2022-07-09T07:15:03;94692.72;;;24.43;47.83
43217;BME280;60511;42.686;23.300;2022-07-09T07:17:03;94700.06;;;24.03;48.96
43217;BME280;60511;42.686;23.300;2022-07-09T07:19:04;94694.69;;;23.52;50.49
43217;BME280;60511;42.686;23.300;2022-07-09T07:21:05;94697.38;;;23.68;50.24
43217;BME280;60511;42.686;23.300;2022-07-09T07:23:05;94697.84;;;23.74;50.54
43217;BME280;60511;42.686;23.300;2022-07-09T07:25:05;94689.94;;;24.39;48.95
43217;BME280;60511;42.686;23.300;2022-07-09T07:27:06;94692.47;;;24.09;49.72
43217;BME280;60511;42.686;23.300;2022-07-09T07:29:06;94706.56;;;23.16;51.99
43217;BME280;60511;42.686;23.300;2022-07-09T07:31:07;94692.72;;;22.17;55.31
43217;BME280;60511;42.686;23.300;2022-07-09T07:33:08;94694.44;;;21.69;56.43
43217;BME280;60511;42.686;23.300;2022-07-09T07:35:08;94692.16;;;21.83;56.16
43217;BME280;60511;42.686;23.300;2022-07-09T07:37:09;94694.38;;;21.93;56.27
43217;BME280;60511;42.686;23.300;2022-07-09T07:39:10;94695.81;;;21.50;57.62
43217;BME280;60511;42.686;23.300;2022-07-09T07:41:10;94695.69;;;21.46;57.73
43217;BME280;60511;42.686;23.300;2022-07-09T07:43:12;94694.13;;;21.21;58.18
43217;BME280;60511;42.686;23.300;2022-07-09T07:45:14;94693.53;;;21.03;58.69
43217;BME280;60511;42.686;23.300;2022-07-09T07:47:14;94697.59;;;22.23;56.07
43217;BME280;60511;42.686;23.300;2022-07-09T07:49:14;94694.31;;;21.65;56.62
43217;BME280;60511;42.686;23.300;2022-07-09T07:51:15;94696.25;;;21.52;57.16
43217;BME280;60511;42.686;23.300;2022-07-09T07:53:15;94704.19;;;21.36;57.29
43217;BME280;60511;42.686;23.300;2022-07-09T07:55:15;94698.03;;;22.25;54.94
43217;BME280;60511;42.686;23.300;2022-07-09T07:57:16;94700.81;;;23.01;53.13
43217;BME280;60511;42.686;23.300;2022-07-09T07:59:17;94697.63;;;22.83;52.90
43217;BME280;60511;42.686;23.300;2022-07-09T08:01:18;94695.19;;;22.78;53.11
43217;BME280;60511;42.686;23.300;2022-07-09T08:03:19;94695.19;;;22.34;54.68
43217;BME280;60511;42.686;23.300;2022-07-09T08:05:19;94695.66;;;22.52;54.04
43217;BME280;60511;42.686;23.300;2022-07-09T08:07:20;94688.13;;;22.58;53.95
43217;BME280;60511;42.686;23.300;2022-07-09T08:09:20;94689.94;;;22.54;53.27
43217;BME280;60511;42.686;23.300;2022-07-09T08:11:21;94692.88;;;21.31;56.55
43217;BME280;60511;42.686;23.300;2022-07-09T08:13:21;94691.09;;;22.40;53.96
43217;BME280;60511;42.686;23.300;2022-07-09T08:15:21;94691.00;;;21.56;56.30
43217;BME280;60511;42.686;23.300;2022-07-09T08:17:21;94691.81;;;21.97;55.34
43217;BME280;60511;42.686;23.300;2022-07-09T08:19:22;94689.72;;;22.91;53.06
43217;BME280;60511;42.686;23.300;2022-07-09T08:21:23;94685.22;;;23.62;51.03
43217;BME280;60511;42.686;23.300;2022-07-09T08:23:24;94692.59;;;23.97;50.00
43217;BME280;60511;42.686;23.300;2022-07-09T08:25:24;94694.13;;;23.11;51.81
43217;BME280;60511;42.686;23.300;2022-07-09T08:27:24;94684.69;;;21.15;56.79
43217;BME280;60511;42.686;23.300;2022-07-09T08:29:25;94702.66;;;20.65;58.47
43217;BME280;60511;42.686;23.300;2022-07-09T08:31:25;94689.25;;;20.44;59.55
43217;BME280;60511;42.686;23.300;2022-07-09T08:35:26;94693.66;;;21.68;56.22
43217;BME280;60511;42.686;23.300;2022-07-09T08:37:26;94688.16;;;22.90;52.47
43217;BME280;60511;42.686;23.300;2022-07-09T08:39:27;94689.78;;;21.94;54.58
43217;BME280;60511;42.686;23.300;2022-07-09T08:41:27;94693.69;;;21.96;54.61
43217;BME280;60511;42.686;23.300;2022-07-09T08:43:27;94690.22;;;22.36;53.74
43217;BME280;60511;42.686;23.300;2022-07-09T08:45:27;94692.75;;;21.76;55.19
43217;BME280;60511;42.686;23.300;2022-07-09T08:47:29;94689.00;;;22.34;53.71
43217;BME280;60511;42.686;23.300;2022-07-09T08:49:30;94702.47;;;22.62;52.96
43217;BME280;60511;42.686;23.300;2022-07-09T08:51:31;94697.28;;;22.00;54.60
43217;BME280;60511;42.686;23.300;2022-07-09T08:53:32;94696.66;;;22.60;52.97
43217;BME280;60511;42.686;23.300;2022-07-09T08:55:32;94699.84;;;23.10;51.93
43217;BME280;60511;42.686;23.300;2022-07-09T08:57:33;94700.09;;;23.04;51.71
43217;BME280;60511;42.686;23.300;2022-07-09T08:59:34;94700.88;;;23.21;51.34
43217;BME280;60511;42.686;23.300;2022-07-09T09:01:34;94709.97;;;22.00;53.55
43217;BME280;60511;42.686;23.300;2022-07-09T09:03:35;94704.28;;;21.89;54.62
43217;BME280;60511;42.686;23.300;2022-07-09T09:05:35;94703.63;;;21.18;56.12
43217;BME280;60511;42.686;23.300;2022-07-09T09:07:35;94703.53;;;21.27;56.03
43217;BME280;60511;42.686;23.300;2022-07-09T09:09:36;94700.22;;;22.64;52.45
43217;BME280;60511;42.686;23.300;2022-07-09T09:11:36;94708.94;;;22.73;52.12
43217;BME280;60511;42.686;23.300;2022-07-09T09:13:39;94702.53;;;23.41;50.11
43217;BME280;60511;42.686;23.300;2022-07-09T09:15:40;94698.44;;;24.18;47.74
43217;BME280;60511;42.686;23.300;2022-07-09T09:17:44;94702.41;;;24.63;47.15
43217;BME280;60511;42.686;23.300;2022-07-09T09:19:47;94698.59;;;24.88;46.19
43217;BME280;60511;42.686;23.300;2022-07-09T09:21:49;94699.38;;;24.88;46.04
43217;BME280;60511;42.686;23.300;2022-07-09T09:23:51;94700.22;;;24.92;45.85
43217;BME280;60511;42.686;23.300;2022-07-09T09:25:55;94697.66;;;24.99;45.81
43217;BME280;60511;42.686;23.300;2022-07-09T09:27:56;94695.91;;;25.11;45.47
43217;BME280;60511;42.686;23.300;2022-07-09T09:29:57;94697.38;;;25.28;45.67
43217;BME280;60511;42.686;23.300;2022-07-09T09:31:58;94693.22;;;25.34;45.53
43217;BME280;60511;42.686;23.300;2022-07-09T09:36:08;94686.09;;;25.49;45.31
43217;BME280;60511;42.686;23.300;2022-07-09T09:38:08;94680.72;;;25.52;45.13
43217;BME280;60511;42.686;23.300;2022-07-09T09:40:09;94686.97;;;25.56;45.12
43217;BME280;60511;42.686;23.300;2022-07-09T09:42:11;94689.00;;;25.63;44.78
43217;BME280;60511;42.686;23.300;2022-07-09T09:46:20;94688.44;;;25.77;44.71
43217;BME280;60511;42.686;23.300;2022-07-09T09:48:21;94686.63;;;25.88;44.25
43217;BME280;60511;42.686;23.300;2022-07-09T09:50:24;94687.41;;;25.89;44.37
43217;BME280;60511;42.686;23.300;2022-07-09T09:52:25;94687.50;;;25.92;44.08
43217;BME280;60511;42.686;23.300;2022-07-09T09:54:26;94687.59;;;25.99;43.86
43217;BME280;60511;42.686;23.300;2022-07-09T09:56:26;94692.69;;;26.04;43.67
43217;BME280;60511;42.686;23.300;2022-07-09T09:58:28;94695.75;;;26.03;43.69
43217;BME280;60511;42.686;23.300;2022-07-09T10:00:28;94691.56;;;26.05;43.46
43217;BME280;60511;42.686;23.300;2022-07-09T10:02:28;94696.59;;;26.07;43.62
43217;BME280;60511;42.686;23.300;2022-07-09T10:04:29;94690.41;;;26.06;43.61
43217;BME280;60511;42.686;23.300;2022-07-09T10:06:30;94693.66;;;26.19;43.20
43217;BME280;60511;42.686;23.300;2022-07-09T10:08:30;94692.38;;;26.10;43.50
43217;BME280;60511;42.686;23.300;2022-07-09T10:10:30;94693.09;;;26.06;43.56
43217;BME280;60511;42.686;23.300;2022-07-09T10:12:32;94690.44;;;26.10;43.69
43217;BME280;60511;42.686;23.300;2022-07-09T10:14:33;94688.88;;;26.09;43.77
43217;BME280;60511;42.686;23.300;2022-07-09T10:16:38;94694.75;;;26.15;43.36
43217;BME280;60511;42.686;23.300;2022-07-09T10:18:49;94693.09;;;26.06;43.65
43217;BME280;60511;42.686;23.300;2022-07-09T10:20:54;94697.47;;;26.15;43.60
43217;BME280;60511;42.686;23.300;2022-07-09T10:22:54;94697.94;;;26.20;43.42
43217;BME280;60511;42.686;23.300;2022-07-09T10:24:55;94694.94;;;26.29;43.27
43217;BME280;60511;42.686;23.300;2022-07-09T10:27:07;94704.59;;;26.26;43.29
43217;BME280;60511;42.686;23.300;2022-07-09T10:31:23;94695.75;;;26.33;43.26
43217;BME280;60511;42.686;23.300;2022-07-09T10:33:32;94703.16;;;26.36;43.24
43217;BME280;60511;42.686;23.300;2022-07-09T10:35:42;94705.88;;;26.36;43.25
43217;BME280;60511;42.686;23.300;2022-07-09T10:37:44;94704.66;;;26.30;43.45
43217;BME280;60511;42.686;23.300;2022-07-09T10:39:54;94707.03;;;26.35;43.42